sensor_id;sensor_type;location;lat;lon;timestamp;temperature;humidity
23405;DHT22;11875;49.356;2.718;2024-03-08T00:01:09;8.30;99.90
23405;DHT22;11875;49.356;2.718;2024-03-08T00:03:35;8.30;99.90
23405;DHT22;11875;49.356;2.718;2024-03-08T00:06:00;8.30;99.90
23405;DHT22;11875;49.356;2.718;2024-03-08T00:08:26;8.30;99.90
23405;DHT22;11875;49.356;2.718;2024-03-08T00:10:52;8.30;99.90
23405;DHT22;11875;49.356;2.718;2024-03-08T00:13:18;8.30;99.90
23405;DHT22;11875;49.356;2.718;2024-03-08T00:15:43;8.20;99.90
23405;DHT22;11875;49.356;2.718;2024-03-08T00:18:09;7.90;99.90
23405;DHT22;11875;49.356;2.718;2024-03-08T00:20:35;9.50;99.90
23405;DHT22;11875;49.356;2.718;2024-03-08T00:23:01;7.90;99.90
23405;DHT22;11875;49.356;2.718;2024-03-08T00:25:27;7.90;99.90
23405;DHT22;11875;49.356;2.718;2024-03-08T00:27:53;7.90;99.90
23405;DHT22;11875;49.356;2.718;2024-03-08T00:30:22;7.90;99.90
23405;DHT22;11875;49.356;2.718;2024-03-08T00:32:48;7.90;99.90
23405;DHT22;11875;49.356;2.718;2024-03-08T00:35:14;7.80;99.90
23405;DHT22;11875;49.356;2.718;2024-03-08T00:37:40;7.80;99.90
23405;DHT22;11875;49.356;2.718;2024-03-08T00:40:07;7.70;99.90
23405;DHT22;11875;49.356;2.718;2024-03-08T00:42:34;7.70;99.90
23405;DHT22;11875;49.356;2.718;2024-03-08T00:45:01;7.70;99.90
23405;DHT22;11875;49.356;2.718;2024-03-08T00:47:26;7.60;99.90
23405;DHT22;11875;49.356;2.718;2024-03-08T00:49:52;7.60;99.90
23405;DHT22;11875;49.356;2.718;2024-03-08T00:52:18;7.70;99.90
23405;DHT22;11875;49.356;2.718;2024-03-08T00:54:44;7.70;99.90
23405;DHT22;11875;49.356;2.718;2024-03-08T00:57:10;7.70;99.90
23405;DHT22;11875;49.356;2.718;2024-03-08T00:59:38;7.60;99.90
23405;DHT22;11875;49.356;2.718;2024-03-08T01:02:04;7.50;99.90
23405;DHT22;11875;49.356;2.718;2024-03-08T01:04:29;7.60;99.90
23405;DHT22;11875;49.356;2.718;2024-03-08T01:06:59;7.60;99.90
23405;DHT22;11875;49.356;2.718;2024-03-08T01:09:25;7.60;99.90
23405;DHT22;11875;49.356;2.718;2024-03-08T01:11:52;7.60;99.90
23405;DHT22;11875;49.356;2.718;2024-03-08T01:14:20;7.60;99.90
23405;DHT22;11875;49.356;2.718;2024-03-08T01:16:48;7.60;99.90
23405;DHT22;11875;49.356;2.718;2024-03-08T01:19:13;7.60;99.90
23405;DHT22;11875;49.356;2.718;2024-03-08T01:21:39;7.60;99.90
23405;DHT22;11875;49.356;2.718;2024-03-08T01:24:05;7.50;99.90
23405;DHT22;11875;49.356;2.718;2024-03-08T01:26:31;7.40;99.90
23405;DHT22;11875;49.356;2.718;2024-03-08T01:28:56;7.30;99.90
23405;DHT22;11875;49.356;2.718;2024-03-08T01:31:22;7.20;99.90
23405;DHT22;11875;49.356;2.718;2024-03-08T01:33:47;7.10;99.90
23405;DHT22;11875;49.356;2.718;2024-03-08T01:36:15;7.00;99.90
23405;DHT22;11875;49.356;2.718;2024-03-08T01:38:44;7.10;99.90
23405;DHT22;11875;49.356;2.718;2024-03-08T01:41:10;7.10;99.90
23405;DHT22;11875;49.356;2.718;2024-03-08T01:43:35;7.10;99.90
23405;DHT22;11875;49.356;2.718;2024-03-08T01:46:01;7.00;99.90
23405;DHT22;11875;49.356;2.718;2024-03-08T01:48:28;7.00;99.90
23405;DHT22;11875;49.356;2.718;2024-03-08T01:50:55;7.10;99.90
23405;DHT22;11875;49.356;2.718;2024-03-08T01:53:22;7.10;99.90
23405;DHT22;11875;49.356;2.718;2024-03-08T01:55:48;7.10;99.90
23405;DHT22;11875;49.356;2.718;2024-03-08T01:58:15;7.20;99.90
23405;DHT22;11875;49.356;2.718;2024-03-08T02:00:44;7.20;99.90
23405;DHT22;11875;49.356;2.718;2024-03-08T02:03:12;7.20;99.90
23405;DHT22;11875;49.356;2.718;2024-03-08T02:05:40;7.10;99.90
23405;DHT22;11875;49.356;2.718;2024-03-08T02:08:06;6.90;99.90
23405;DHT22;11875;49.356;2.718;2024-03-08T02:10:39;6.90;99.90
23405;DHT22;11875;49.356;2.718;2024-03-08T02:13:05;6.90;99.90
23405;DHT22;11875;49.356;2.718;2024-03-08T02:15:59;7.00;99.90
23405;DHT22;11875;49.356;2.718;2024-03-08T02:18:25;6.90;99.90
23405;DHT22;11875;49.356;2.718;2024-03-08T02:20:55;6.90;99.90
23405;DHT22;11875;49.356;2.718;2024-03-08T02:23:22;6.80;99.90
23405;DHT22;11875;49.356;2.718;2024-03-08T02:25:50;6.70;99.90
23405;DHT22;11875;49.356;2.718;2024-03-08T02:28:16;6.70;99.90
23405;DHT22;11875;49.356;2.718;2024-03-08T02:30:44;6.80;99.90
23405;DHT22;11875;49.356;2.718;2024-03-08T02:33:13;6.80;99.90
23405;DHT22;11875;49.356;2.718;2024-03-08T02:35:42;6.70;99.90
23405;DHT22;11875;49.356;2.718;2024-03-08T02:38:12;6.70;99.90
23405;DHT22;11875;49.356;2.718;2024-03-08T02:40:37;6.80;99.90
23405;DHT22;11875;49.356;2.718;2024-03-08T02:43:03;6.80;99.90
23405;DHT22;11875;49.356;2.718;2024-03-08T02:45:30;6.80;99.90
23405;DHT22;11875;49.356;2.718;2024-03-08T02:47:56;6.80;99.90
23405;DHT22;11875;49.356;2.718;2024-03-08T02:50:21;6.70;99.90
23405;DHT22;11875;49.356;2.718;2024-03-08T02:52:48;6.70;99.90
23405;DHT22;11875;49.356;2.718;2024-03-08T02:55:13;6.70;99.90
23405;DHT22;11875;49.356;2.718;2024-03-08T02:57:42;6.60;99.90
23405;DHT22;11875;49.356;2.718;2024-03-08T03:00:13;6.60;99.90
23405;DHT22;11875;49.356;2.718;2024-03-08T03:02:39;6.50;99.90
23405;DHT22;11875;49.356;2.718;2024-03-08T03:05:05;6.60;99.90
23405;DHT22;11875;49.356;2.718;2024-03-08T03:07:32;6.40;99.90
23405;DHT22;11875;49.356;2.718;2024-03-08T03:09:59;6.30;99.90
23405;DHT22;11875;49.356;2.718;2024-03-08T03:12:29;6.30;99.90
23405;DHT22;11875;49.356;2.718;2024-03-08T03:14:55;6.30;99.90
23405;DHT22;11875;49.356;2.718;2024-03-08T03:17:22;6.40;99.90
23405;DHT22;11875;49.356;2.718;2024-03-08T03:19:48;6.30;99.90
23405;DHT22;11875;49.356;2.718;2024-03-08T03:22:13;6.20;99.90
23405;DHT22;11875;49.356;2.718;2024-03-08T03:24:39;6.20;99.90
23405;DHT22;11875;49.356;2.718;2024-03-08T03:27:05;6.30;99.90
23405;DHT22;11875;49.356;2.718;2024-03-08T03:29:40;6.20;99.90
23405;DHT22;11875;49.356;2.718;2024-03-08T03:32:08;6.20;99.90
23405;DHT22;11875;49.356;2.718;2024-03-08T03:34:34;6.30;99.90
23405;DHT22;11875;49.356;2.718;2024-03-08T03:37:03;6.30;99.90
23405;DHT22;11875;49.356;2.718;2024-03-08T03:39:30;6.20;99.90
23405;DHT22;11875;49.356;2.718;2024-03-08T03:41:58;6.30;99.90
23405;DHT22;11875;49.356;2.718;2024-03-08T03:44:24;6.20;99.90
23405;DHT22;11875;49.356;2.718;2024-03-08T03:46:49;6.20;99.90
23405;DHT22;11875;49.356;2.718;2024-03-08T03:49:16;6.30;99.90
23405;DHT22;11875;49.356;2.718;2024-03-08T03:51:42;6.20;99.90
23405;DHT22;11875;49.356;2.718;2024-03-08T03:54:08;6.40;99.90
23405;DHT22;11875;49.356;2.718;2024-03-08T03:56:33;6.40;99.90
23405;DHT22;11875;49.356;2.718;2024-03-08T03:58:59;6.40;99.90
23405;DHT22;11875;49.356;2.718;2024-03-08T04:01:25;6.20;99.90
23405;DHT22;11875;49.356;2.718;2024-03-08T04:03:50;6.10;99.90
23405;DHT22;11875;49.356;2.718;2024-03-08T04:06:16;6.10;99.90
23405;DHT22;11875;49.356;2.718;2024-03-08T04:08:41;6.00;99.90
23405;DHT22;11875;49.356;2.718;2024-03-08T04:11:07;5.90;99.90
23405;DHT22;11875;49.356;2.718;2024-03-08T04:13:36;6.00;99.90
23405;DHT22;11875;49.356;2.718;2024-03-08T04:16:02;5.90;99.90
23405;DHT22;11875;49.356;2.718;2024-03-08T04:18:28;5.80;99.90
23405;DHT22;11875;49.356;2.718;2024-03-08T04:20:53;5.70;99.90
23405;DHT22;11875;49.356;2.718;2024-03-08T04:23:19;5.70;99.90
23405;DHT22;11875;49.356;2.718;2024-03-08T04:25:45;5.60;99.90
23405;DHT22;11875;49.356;2.718;2024-03-08T04:28:11;5.50;99.90
23405;DHT22;11875;49.356;2.718;2024-03-08T04:30:38;5.50;99.90
23405;DHT22;11875;49.356;2.718;2024-03-08T04:33:05;5.60;99.90
23405;DHT22;11875;49.356;2.718;2024-03-08T04:35:32;5.60;99.90
23405;DHT22;11875;49.356;2.718;2024-03-08T04:37:58;5.60;99.90
23405;DHT22;11875;49.356;2.718;2024-03-08T04:40:24;5.70;99.90
23405;DHT22;11875;49.356;2.718;2024-03-08T04:42:50;5.40;99.90
23405;DHT22;11875;49.356;2.718;2024-03-08T04:45:16;5.40;99.90
23405;DHT22;11875;49.356;2.718;2024-03-08T04:47:42;5.40;99.90
23405;DHT22;11875;49.356;2.718;2024-03-08T04:50:08;5.20;99.90
23405;DHT22;11875;49.356;2.718;2024-03-08T04:52:37;5.30;99.90
23405;DHT22;11875;49.356;2.718;2024-03-08T04:55:02;5.20;99.90
23405;DHT22;11875;49.356;2.718;2024-03-08T04:57:31;5.30;99.90
23405;DHT22;11875;49.356;2.718;2024-03-08T04:59:57;5.50;99.90
23405;DHT22;11875;49.356;2.718;2024-03-08T05:02:24;5.30;99.90
23405;DHT22;11875;49.356;2.718;2024-03-08T05:04:50;5.40;99.90
23405;DHT22;11875;49.356;2.718;2024-03-08T05:07:16;5.40;99.90
23405;DHT22;11875;49.356;2.718;2024-03-08T05:09:42;5.40;99.90
23405;DHT22;11875;49.356;2.718;2024-03-08T05:12:07;5.50;99.90
23405;DHT22;11875;49.356;2.718;2024-03-08T05:14:33;5.50;99.90
23405;DHT22;11875;49.356;2.718;2024-03-08T05:17:00;5.40;99.90
23405;DHT22;11875;49.356;2.718;2024-03-08T05:19:26;5.20;99.90
23405;DHT22;11875;49.356;2.718;2024-03-08T05:21:52;5.10;99.90
23405;DHT22;11875;49.356;2.718;2024-03-08T05:24:18;5.20;99.90
23405;DHT22;11875;49.356;2.718;2024-03-08T05:26:44;5.10;99.90
23405;DHT22;11875;49.356;2.718;2024-03-08T05:29:09;5.20;99.90
23405;DHT22;11875;49.356;2.718;2024-03-08T05:31:49;5.10;99.90
23405;DHT22;11875;49.356;2.718;2024-03-08T05:34:15;5.20;99.90
23405;DHT22;11875;49.356;2.718;2024-03-08T05:36:42;5.20;99.90
23405;DHT22;11875;49.356;2.718;2024-03-08T05:39:15;5.20;99.90
23405;DHT22;11875;49.356;2.718;2024-03-08T05:41:41;5.20;99.90
23405;DHT22;11875;49.356;2.718;2024-03-08T05:44:07;5.20;99.90
23405;DHT22;11875;49.356;2.718;2024-03-08T05:46:33;5.20;99.90
23405;DHT22;11875;49.356;2.718;2024-03-08T05:48:59;5.30;99.90
23405;DHT22;11875;49.356;2.718;2024-03-08T05:51:25;5.20;99.90
23405;DHT22;11875;49.356;2.718;2024-03-08T05:53:53;5.10;99.90
23405;DHT22;11875;49.356;2.718;2024-03-08T05:56:19;5.10;99.90
23405;DHT22;11875;49.356;2.718;2024-03-08T05:58:45;5.00;99.90
23405;DHT22;11875;49.356;2.718;2024-03-08T06:01:11;4.90;99.90
23405;DHT22;11875;49.356;2.718;2024-03-08T06:03:38;4.90;99.90
23405;DHT22;11875;49.356;2.718;2024-03-08T06:06:12;4.70;99.90
23405;DHT22;11875;49.356;2.718;2024-03-08T06:08:38;4.70;99.90
23405;DHT22;11875;49.356;2.718;2024-03-08T06:11:03;5.20;99.90
23405;DHT22;11875;49.356;2.718;2024-03-08T06:13:30;4.50;99.90
23405;DHT22;11875;49.356;2.718;2024-03-08T06:15:56;4.40;99.90
23405;DHT22;11875;49.356;2.718;2024-03-08T06:18:22;4.40;99.90
23405;DHT22;11875;49.356;2.718;2024-03-08T06:20:48;4.50;99.90
23405;DHT22;11875;49.356;2.718;2024-03-08T06:23:13;4.40;99.90
23405;DHT22;11875;49.356;2.718;2024-03-08T06:25:43;4.50;99.90
23405;DHT22;11875;49.356;2.718;2024-03-08T06:28:09;4.60;99.90
23405;DHT22;11875;49.356;2.718;2024-03-08T06:30:34;4.80;99.90
23405;DHT22;11875;49.356;2.718;2024-03-08T06:33:00;4.90;99.90
23405;DHT22;11875;49.356;2.718;2024-03-08T06:35:26;4.80;99.90
23405;DHT22;11875;49.356;2.718;2024-03-08T06:37:51;4.70;99.90
23405;DHT22;11875;49.356;2.718;2024-03-08T06:40:17;4.50;99.90
23405;DHT22;11875;49.356;2.718;2024-03-08T06:42:42;4.40;99.90
23405;DHT22;11875;49.356;2.718;2024-03-08T06:45:09;4.60;99.90
23405;DHT22;11875;49.356;2.718;2024-03-08T06:47:36;4.60;99.90
23405;DHT22;11875;49.356;2.718;2024-03-08T06:50:02;4.70;99.90
23405;DHT22;11875;49.356;2.718;2024-03-08T06:52:28;4.70;99.90
23405;DHT22;11875;49.356;2.718;2024-03-08T06:54:53;4.70;99.90
23405;DHT22;11875;49.356;2.718;2024-03-08T06:57:19;4.80;99.90
23405;DHT22;11875;49.356;2.718;2024-03-08T06:59:48;4.50;99.90
23405;DHT22;11875;49.356;2.718;2024-03-08T07:02:13;4.70;99.90
23405;DHT22;11875;49.356;2.718;2024-03-08T07:04:39;4.60;99.90
23405;DHT22;11875;49.356;2.718;2024-03-08T07:07:05;4.50;99.90
23405;DHT22;11875;49.356;2.718;2024-03-08T07:09:33;4.60;99.90
23405;DHT22;11875;49.356;2.718;2024-03-08T07:11:59;4.60;99.90
23405;DHT22;11875;49.356;2.718;2024-03-08T07:14:24;4.60;99.90
23405;DHT22;11875;49.356;2.718;2024-03-08T07:16:50;4.40;99.90
23405;DHT22;11875;49.356;2.718;2024-03-08T07:19:16;4.30;99.90
23405;DHT22;11875;49.356;2.718;2024-03-08T07:21:45;4.40;99.90
23405;DHT22;11875;49.356;2.718;2024-03-08T07:24:12;4.40;99.90
23405;DHT22;11875;49.356;2.718;2024-03-08T07:26:57;4.40;99.90
23405;DHT22;11875;49.356;2.718;2024-03-08T07:29:23;4.50;99.90
23405;DHT22;11875;49.356;2.718;2024-03-08T07:31:48;4.70;99.90
23405;DHT22;11875;49.356;2.718;2024-03-08T07:34:27;4.80;99.90
23405;DHT22;11875;49.356;2.718;2024-03-08T07:36:55;5.00;99.90
23405;DHT22;11875;49.356;2.718;2024-03-08T07:39:21;5.10;99.90
23405;DHT22;11875;49.356;2.718;2024-03-08T07:41:49;5.50;99.90
23405;DHT22;11875;49.356;2.718;2024-03-08T07:44:15;6.10;99.90
23405;DHT22;11875;49.356;2.718;2024-03-08T07:46:40;6.70;99.90
23405;DHT22;11875;49.356;2.718;2024-03-08T07:49:06;6.80;99.90
23405;DHT22;11875;49.356;2.718;2024-03-08T07:51:36;6.70;99.90
23405;DHT22;11875;49.356;2.718;2024-03-08T07:54:03;7.00;99.90
23405;DHT22;11875;49.356;2.718;2024-03-08T07:56:30;7.30;99.90
23405;DHT22;11875;49.356;2.718;2024-03-08T07:58:56;7.70;99.90
23405;DHT22;11875;49.356;2.718;2024-03-08T08:01:22;8.00;99.90
23405;DHT22;11875;49.356;2.718;2024-03-08T08:03:47;8.10;99.90
23405;DHT22;11875;49.356;2.718;2024-03-08T08:06:15;8.20;99.90
23405;DHT22;11875;49.356;2.718;2024-03-08T08:08:44;8.30;99.90
23405;DHT22;11875;49.356;2.718;2024-03-08T08:11:10;8.50;99.90
23405;DHT22;11875;49.356;2.718;2024-03-08T08:13:41;8.50;99.90
23405;DHT22;11875;49.356;2.718;2024-03-08T08:16:08;8.60;99.90
23405;DHT22;11875;49.356;2.718;2024-03-08T08:18:34;8.80;99.90
23405;DHT22;11875;49.356;2.718;2024-03-08T08:21:01;8.70;99.90
23405;DHT22;11875;49.356;2.718;2024-03-08T08:23:26;8.80;99.90
23405;DHT22;11875;49.356;2.718;2024-03-08T08:25:52;8.90;99.90
23405;DHT22;11875;49.356;2.718;2024-03-08T08:28:18;9.20;99.90
23405;DHT22;11875;49.356;2.718;2024-03-08T08:30:44;10.30;99.90
23405;DHT22;11875;49.356;2.718;2024-03-08T08:33:10;9.10;99.90
23405;DHT22;11875;49.356;2.718;2024-03-08T08:35:38;9.00;99.90
23405;DHT22;11875;49.356;2.718;2024-03-08T08:38:04;9.20;99.90
23405;DHT22;11875;49.356;2.718;2024-03-08T08:40:30;9.00;99.90
23405;DHT22;11875;49.356;2.718;2024-03-08T08:42:58;9.30;99.90
23405;DHT22;11875;49.356;2.718;2024-03-08T08:45:23;9.30;99.90
23405;DHT22;11875;49.356;2.718;2024-03-08T08:47:49;9.50;99.90
23405;DHT22;11875;49.356;2.718;2024-03-08T08:50:15;9.30;99.90
23405;DHT22;11875;49.356;2.718;2024-03-08T08:52:41;9.40;99.90
23405;DHT22;11875;49.356;2.718;2024-03-08T08:55:10;9.50;99.90
23405;DHT22;11875;49.356;2.718;2024-03-08T08:57:40;9.60;99.90
23405;DHT22;11875;49.356;2.718;2024-03-08T09:00:06;9.50;99.90
23405;DHT22;11875;49.356;2.718;2024-03-08T09:02:33;9.60;99.90
23405;DHT22;11875;49.356;2.718;2024-03-08T09:04:59;9.80;99.90
23405;DHT22;11875;49.356;2.718;2024-03-08T09:07:26;10.00;99.90
23405;DHT22;11875;49.356;2.718;2024-03-08T09:09:53;10.00;99.90
23405;DHT22;11875;49.356;2.718;2024-03-08T09:12:22;9.90;99.90
23405;DHT22;11875;49.356;2.718;2024-03-08T09:14:48;10.00;99.90
23405;DHT22;11875;49.356;2.718;2024-03-08T09:17:14;10.20;99.90
23405;DHT22;11875;49.356;2.718;2024-03-08T09:19:43;10.70;99.90
23405;DHT22;11875;49.356;2.718;2024-03-08T09:22:09;10.20;99.90
23405;DHT22;11875;49.356;2.718;2024-03-08T09:24:36;10.60;99.90
23405;DHT22;11875;49.356;2.718;2024-03-08T09:27:02;10.00;99.90
23405;DHT22;11875;49.356;2.718;2024-03-08T09:29:29;10.10;99.90
23405;DHT22;11875;49.356;2.718;2024-03-08T09:31:55;10.20;99.90
23405;DHT22;11875;49.356;2.718;2024-03-08T09:34:21;10.10;99.90
23405;DHT22;11875;49.356;2.718;2024-03-08T09:36:46;10.20;99.90
23405;DHT22;11875;49.356;2.718;2024-03-08T09:39:12;10.50;99.90
23405;DHT22;11875;49.356;2.718;2024-03-08T09:41:43;10.60;99.90
23405;DHT22;11875;49.356;2.718;2024-03-08T09:44:09;11.30;99.90
23405;DHT22;11875;49.356;2.718;2024-03-08T09:46:35;10.60;99.90
23405;DHT22;11875;49.356;2.718;2024-03-08T09:49:00;10.70;99.90
23405;DHT22;11875;49.356;2.718;2024-03-08T09:51:33;10.80;99.90
23405;DHT22;11875;49.356;2.718;2024-03-08T09:54:00;10.80;99.90
23405;DHT22;11875;49.356;2.718;2024-03-08T09:56:26;11.00;99.90
23405;DHT22;11875;49.356;2.718;2024-03-08T09:58:53;11.00;99.90
23405;DHT22;11875;49.356;2.718;2024-03-08T10:01:27;11.10;99.90
23405;DHT22;11875;49.356;2.718;2024-03-08T10:03:53;11.30;99.90
23405;DHT22;11875;49.356;2.718;2024-03-08T10:06:23;11.30;99.90
23405;DHT22;11875;49.356;2.718;2024-03-08T10:08:49;11.30;99.90
23405;DHT22;11875;49.356;2.718;2024-03-08T10:11:17;11.10;99.90
23405;DHT22;11875;49.356;2.718;2024-03-08T10:13:45;11.10;99.90
23405;DHT22;11875;49.356;2.718;2024-03-08T10:16:12;11.20;99.90
23405;DHT22;11875;49.356;2.718;2024-03-08T10:18:37;11.40;99.90
23405;DHT22;11875;49.356;2.718;2024-03-08T10:21:08;11.50;99.90
23405;DHT22;11875;49.356;2.718;2024-03-08T10:23:35;11.20;99.90
23405;DHT22;11875;49.356;2.718;2024-03-08T10:26:12;11.20;99.90
23405;DHT22;11875;49.356;2.718;2024-03-08T10:28:51;11.10;99.90
23405;DHT22;11875;49.356;2.718;2024-03-08T10:31:19;11.30;99.90
23405;DHT22;11875;49.356;2.718;2024-03-08T10:33:48;11.50;99.90
23405;DHT22;11875;49.356;2.718;2024-03-08T10:36:15;11.60;99.90
23405;DHT22;11875;49.356;2.718;2024-03-08T10:38:42;11.50;99.90
23405;DHT22;11875;49.356;2.718;2024-03-08T10:41:09;11.50;99.90
23405;DHT22;11875;49.356;2.718;2024-03-08T10:46:42;11.30;99.90
23405;DHT22;11875;49.356;2.718;2024-03-08T10:49:18;11.30;99.90
23405;DHT22;11875;49.356;2.718;2024-03-08T10:51:49;11.30;99.90
23405;DHT22;11875;49.356;2.718;2024-03-08T10:54:18;11.20;99.90
23405;DHT22;11875;49.356;2.718;2024-03-08T10:56:45;11.30;99.90
23405;DHT22;11875;49.356;2.718;2024-03-08T10:59:11;11.40;99.90
23405;DHT22;11875;49.356;2.718;2024-03-08T11:01:38;11.40;99.90
23405;DHT22;11875;49.356;2.718;2024-03-08T11:04:06;11.50;99.90
23405;DHT22;11875;49.356;2.718;2024-03-08T11:09:27;11.40;99.90
23405;DHT22;11875;49.356;2.718;2024-03-08T11:15:15;11.50;99.90
23405;DHT22;11875;49.356;2.718;2024-03-08T11:17:53;11.50;99.90
23405;DHT22;11875;49.356;2.718;2024-03-08T11:20:24;11.80;99.90
23405;DHT22;11875;49.356;2.718;2024-03-08T11:22:54;11.90;99.90
23405;DHT22;11875;49.356;2.718;2024-03-08T11:25:38;11.90;99.90
23405;DHT22;11875;49.356;2.718;2024-03-08T11:28:18;11.80;99.90
23405;DHT22;11875;49.356;2.718;2024-03-08T11:33:30;12.00;99.90
23405;DHT22;11875;49.356;2.718;2024-03-08T11:38:46;12.20;99.90
23405;DHT22;11875;49.356;2.718;2024-03-08T11:41:21;12.50;99.90
23405;DHT22;11875;49.356;2.718;2024-03-08T11:43:49;12.60;99.90
23405;DHT22;11875;49.356;2.718;2024-03-08T11:46:16;12.40;99.90
23405;DHT22;11875;49.356;2.718;2024-03-08T11:48:43;12.40;99.90
23405;DHT22;11875;49.356;2.718;2024-03-08T11:51:11;12.30;99.90
23405;DHT22;11875;49.356;2.718;2024-03-08T11:53:38;12.50;99.90
23405;DHT22;11875;49.356;2.718;2024-03-08T11:58:32;12.50;99.90
23405;DHT22;11875;49.356;2.718;2024-03-08T12:01:09;12.50;99.90
23405;DHT22;11875;49.356;2.718;2024-03-08T12:03:41;12.60;99.90
23405;DHT22;11875;49.356;2.718;2024-03-08T12:06:10;12.70;99.90
23405;DHT22;11875;49.356;2.718;2024-03-08T12:08:36;13.00;99.90
23405;DHT22;11875;49.356;2.718;2024-03-08T12:11:04;12.90;99.90
23405;DHT22;11875;49.356;2.718;2024-03-08T12:13:34;12.80;99.90
23405;DHT22;11875;49.356;2.718;2024-03-08T12:16:02;12.90;99.90
23405;DHT22;11875;49.356;2.718;2024-03-08T12:18:33;13.00;99.90
23405;DHT22;11875;49.356;2.718;2024-03-08T12:21:10;13.00;99.90
23405;DHT22;11875;49.356;2.718;2024-03-08T12:23:37;13.00;99.90
23405;DHT22;11875;49.356;2.718;2024-03-08T12:26:14;13.10;99.90
23405;DHT22;11875;49.356;2.718;2024-03-08T12:28:41;13.20;99.90
23405;DHT22;11875;49.356;2.718;2024-03-08T12:31:08;13.20;99.90
23405;DHT22;11875;49.356;2.718;2024-03-08T12:33:55;13.30;99.90
23405;DHT22;11875;49.356;2.718;2024-03-08T12:36:24;13.40;99.90
23405;DHT22;11875;49.356;2.718;2024-03-08T12:38:50;13.40;99.90
23405;DHT22;11875;49.356;2.718;2024-03-08T12:41:20;13.40;99.90
23405;DHT22;11875;49.356;2.718;2024-03-08T12:43:47;13.40;99.90
23405;DHT22;11875;49.356;2.718;2024-03-08T12:46:18;13.40;99.90
23405;DHT22;11875;49.356;2.718;2024-03-08T12:48:47;13.30;99.90
23405;DHT22;11875;49.356;2.718;2024-03-08T12:51:14;13.30;99.90
23405;DHT22;11875;49.356;2.718;2024-03-08T12:53:44;13.40;99.90
23405;DHT22;11875;49.356;2.718;2024-03-08T12:56:10;13.60;99.90
23405;DHT22;11875;49.356;2.718;2024-03-08T12:58:36;13.70;99.90
23405;DHT22;11875;49.356;2.718;2024-03-08T13:01:05;13.50;99.90
23405;DHT22;11875;49.356;2.718;2024-03-08T13:03:33;13.40;99.90
23405;DHT22;11875;49.356;2.718;2024-03-08T13:06:04;13.50;99.90
23405;DHT22;11875;49.356;2.718;2024-03-08T13:08:34;13.60;99.90
23405;DHT22;11875;49.356;2.718;2024-03-08T13:11:01;13.60;99.90
23405;DHT22;11875;49.356;2.718;2024-03-08T13:13:27;13.70;99.90
23405;DHT22;11875;49.356;2.718;2024-03-08T13:15:52;13.60;99.90
23405;DHT22;11875;49.356;2.718;2024-03-08T13:18:18;13.60;99.90
23405;DHT22;11875;49.356;2.718;2024-03-08T13:20:44;13.70;99.90
23405;DHT22;11875;49.356;2.718;2024-03-08T13:23:14;13.60;99.90
23405;DHT22;11875;49.356;2.718;2024-03-08T13:25:40;13.60;99.90
23405;DHT22;11875;49.356;2.718;2024-03-08T13:28:06;13.70;99.90
23405;DHT22;11875;49.356;2.718;2024-03-08T13:30:32;13.70;99.90
23405;DHT22;11875;49.356;2.718;2024-03-08T13:32:57;13.70;99.90
23405;DHT22;11875;49.356;2.718;2024-03-08T13:35:23;13.80;99.90
23405;DHT22;11875;49.356;2.718;2024-03-08T13:37:52;13.80;99.90
23405;DHT22;11875;49.356;2.718;2024-03-08T13:40:18;13.80;99.90
23405;DHT22;11875;49.356;2.718;2024-03-08T13:42:46;13.80;99.90
23405;DHT22;11875;49.356;2.718;2024-03-08T13:45:12;13.80;99.90
23405;DHT22;11875;49.356;2.718;2024-03-08T13:47:41;14.00;99.90
23405;DHT22;11875;49.356;2.718;2024-03-08T13:50:08;14.10;99.90
23405;DHT22;11875;49.356;2.718;2024-03-08T13:52:37;14.00;99.90
23405;DHT22;11875;49.356;2.718;2024-03-08T13:55:04;13.90;99.90
23405;DHT22;11875;49.356;2.718;2024-03-08T13:57:30;13.80;99.90
23405;DHT22;11875;49.356;2.718;2024-03-08T13:59:57;13.70;99.90
23405;DHT22;11875;49.356;2.718;2024-03-08T14:02:23;13.90;99.90
23405;DHT22;11875;49.356;2.718;2024-03-08T14:04:53;13.80;99.90
23405;DHT22;11875;49.356;2.718;2024-03-08T14:07:22;13.90;99.90
23405;DHT22;11875;49.356;2.718;2024-03-08T14:09:49;13.90;99.90
23405;DHT22;11875;49.356;2.718;2024-03-08T14:12:15;14.00;99.90
23405;DHT22;11875;49.356;2.718;2024-03-08T14:14:41;14.10;99.90
23405;DHT22;11875;49.356;2.718;2024-03-08T14:17:07;14.00;99.90
23405;DHT22;11875;49.356;2.718;2024-03-08T14:19:35;14.10;99.90
23405;DHT22;11875;49.356;2.718;2024-03-08T14:22:01;14.10;99.90
23405;DHT22;11875;49.356;2.718;2024-03-08T14:24:29;14.10;99.90
23405;DHT22;11875;49.356;2.718;2024-03-08T14:26:55;14.10;99.90
23405;DHT22;11875;49.356;2.718;2024-03-08T14:29:21;14.10;99.90
23405;DHT22;11875;49.356;2.718;2024-03-08T14:31:46;14.00;99.90
23405;DHT22;11875;49.356;2.718;2024-03-08T14:34:12;13.90;99.90
23405;DHT22;11875;49.356;2.718;2024-03-08T14:36:39;13.80;99.90
23405;DHT22;11875;49.356;2.718;2024-03-08T14:39:05;13.80;99.90
23405;DHT22;11875;49.356;2.718;2024-03-08T14:41:33;13.80;99.90
23405;DHT22;11875;49.356;2.718;2024-03-08T14:43:58;13.90;99.90
23405;DHT22;11875;49.356;2.718;2024-03-08T14:46:25;14.00;99.90
23405;DHT22;11875;49.356;2.718;2024-03-08T14:48:52;13.90;99.90
23405;DHT22;11875;49.356;2.718;2024-03-08T14:51:19;13.90;99.90
23405;DHT22;11875;49.356;2.718;2024-03-08T14:53:47;13.90;99.90
23405;DHT22;11875;49.356;2.718;2024-03-08T14:56:13;13.80;99.90
23405;DHT22;11875;49.356;2.718;2024-03-08T14:58:42;13.80;99.90
23405;DHT22;11875;49.356;2.718;2024-03-08T15:01:12;13.90;99.90
23405;DHT22;11875;49.356;2.718;2024-03-08T15:03:41;14.20;99.90
23405;DHT22;11875;49.356;2.718;2024-03-08T15:06:08;14.10;99.90
23405;DHT22;11875;49.356;2.718;2024-03-08T15:08:38;13.90;99.90
23405;DHT22;11875;49.356;2.718;2024-03-08T15:11:05;13.80;99.90
23405;DHT22;11875;49.356;2.718;2024-03-08T15:13:34;13.80;99.90
23405;DHT22;11875;49.356;2.718;2024-03-08T15:16:10;13.90;99.90
23405;DHT22;11875;49.356;2.718;2024-03-08T15:18:42;14.00;99.90
23405;DHT22;11875;49.356;2.718;2024-03-08T15:21:12;13.90;99.90
23405;DHT22;11875;49.356;2.718;2024-03-08T15:23:43;14.00;99.90
23405;DHT22;11875;49.356;2.718;2024-03-08T15:26:13;14.30;99.90
23405;DHT22;11875;49.356;2.718;2024-03-08T15:28:38;14.40;99.90
23405;DHT22;11875;49.356;2.718;2024-03-08T15:31:05;14.50;99.90
23405;DHT22;11875;49.356;2.718;2024-03-08T15:33:35;14.70;99.90
23405;DHT22;11875;49.356;2.718;2024-03-08T15:36:05;14.60;99.90
23405;DHT22;11875;49.356;2.718;2024-03-08T15:38:35;14.60;99.90
23405;DHT22;11875;49.356;2.718;2024-03-08T15:41:00;14.50;99.90
23405;DHT22;11875;49.356;2.718;2024-03-08T15:43:26;14.70;99.90
23405;DHT22;11875;49.356;2.718;2024-03-08T15:45:52;14.90;99.90
23405;DHT22;11875;49.356;2.718;2024-03-08T15:48:18;14.30;99.90
23405;DHT22;11875;49.356;2.718;2024-03-08T15:50:43;14.50;99.90
23405;DHT22;11875;49.356;2.718;2024-03-08T15:53:09;14.50;99.90
23405;DHT22;11875;49.356;2.718;2024-03-08T15:55:38;14.40;99.90
23405;DHT22;11875;49.356;2.718;2024-03-08T15:58:06;14.40;99.90